Terminal Aerodrome Forecast
Issued by NWS

Home | Current Version | Previous Version | Graphics & Text | Print | Product List | Glossary On
Versions: 1 2 3 4 5 6 7 8 9 10 11 12
892
FTUS43 KICT 181720
TAFRSL
TAF
KRSL 181720Z 1818/1918 23008KT P6SM FEW250
     FM182100 30007KT P6SM FEW200
     FM190000 02007KT P6SM SKC
     FM191600 15008KT P6SM SKC=

USA.gov is the U.S. government's official web portal to all federal, state and local government web resources and services.